Pocahontas, Tennessee
Current Conditions -  °F | °C
As of 12:35 AM on Saturday 20 Dec 2014 (Local Time) from KCRX Reporting Station
Overcast Overcast  
Wind Chill: 39°   Ceiling: 9000
Heat Index: 39°   Visibility: 10mi
Dew Point: 34°   Wind: 3mph
Humidity: 81%   Direction: 320°NW
Pressure: 30.21"   Gusts: NA
Location:  35.05°N, 88.8°W
Report Text: KCRX 200635Z AUTO 32003KT 10SM FEW070 OVC090 04/01 A3021 RMK AO2
Loading
Personal Weather Stations






























Interactive Weather Map New forecast layout! Learn more

10-Day Weather Forecast

Advertisements
Track Severe Weather on mobile